sensor_id;sensor_type;location;lat;lon;timestamp;pressure;altitude;pressure_sealevel;temperature;humidity
80509;BME280;69838;52.602;13.434;2023-12-22T00:00:14;97898.50;;;3.38;96.70
80509;BME280;69838;52.602;13.434;2023-12-22T00:01:00;97888.78;;;3.37;96.14
80509;BME280;69838;52.602;13.434;2023-12-22T00:01:45;97894.28;;;3.34;96.48
80509;BME280;69838;52.602;13.434;2023-12-22T00:02:32;97899.09;;;3.29;96.66
80509;BME280;69838;52.602;13.434;2023-12-22T00:03:17;97907.47;;;3.22;97.42
80509;BME280;69838;52.602;13.434;2023-12-22T00:04:03;97898.72;;;3.20;96.87
80509;BME280;69838;52.602;13.434;2023-12-22T00:04:51;97903.66;;;3.27;95.55
80509;BME280;69838;52.602;13.434;2023-12-22T00:05:36;97910.88;;;3.24;95.83
80509;BME280;69838;52.602;13.434;2023-12-22T00:06:22;97913.00;;;3.19;96.09
80509;BME280;69838;52.602;13.434;2023-12-22T00:07:08;97900.81;;;3.15;96.10
80509;BME280;69838;52.602;13.434;2023-12-22T00:07:54;97912.31;;;3.16;96.26
80509;BME280;69838;52.602;13.434;2023-12-22T00:08:40;97919.66;;;3.12;96.54
80509;BME280;69838;52.602;13.434;2023-12-22T00:09:27;97908.06;;;3.13;95.94
80509;BME280;69838;52.602;13.434;2023-12-22T00:10:12;97898.16;;;3.15;94.94
80509;BME280;69838;52.602;13.434;2023-12-22T00:10:59;97915.59;;;3.06;95.78
80509;BME280;69838;52.602;13.434;2023-12-22T00:11:45;97913.13;;;3.03;96.15
80509;BME280;69838;52.602;13.434;2023-12-22T00:12:31;97901.03;;;2.98;96.32
80509;BME280;69838;52.602;13.434;2023-12-22T00:13:17;97908.84;;;3.01;95.78
80509;BME280;69838;52.602;13.434;2023-12-22T00:14:03;97913.78;;;3.07;95.59
80509;BME280;69838;52.602;13.434;2023-12-22T00:14:48;97901.22;;;3.09;94.46
80509;BME280;69838;52.602;13.434;2023-12-22T00:15:35;97902.06;;;3.10;94.28
80509;BME280;69838;52.602;13.434;2023-12-22T00:16:20;97930.44;;;3.11;94.04
80509;BME280;69838;52.602;13.434;2023-12-22T00:17:06;97912.13;;;3.19;93.01
80509;BME280;69838;52.602;13.434;2023-12-22T00:17:52;97920.22;;;3.17;93.00
80509;BME280;69838;52.602;13.434;2023-12-22T00:18:38;97909.38;;;3.20;91.68
80509;BME280;69838;52.602;13.434;2023-12-22T00:19:23;97918.88;;;3.24;90.92
80509;BME280;69838;52.602;13.434;2023-12-22T00:20:10;97923.66;;;3.19;91.71
80509;BME280;69838;52.602;13.434;2023-12-22T00:20:58;97919.84;;;3.23;90.43
80509;BME280;69838;52.602;13.434;2023-12-22T00:21:43;97931.66;;;3.19;91.44
80509;BME280;69838;52.602;13.434;2023-12-22T00:22:30;97918.72;;;3.13;91.91
80509;BME280;69838;52.602;13.434;2023-12-22T00:23:15;97922.72;;;3.06;92.70
80509;BME280;69838;52.602;13.434;2023-12-22T00:24:01;97927.22;;;3.05;92.07
80509;BME280;69838;52.602;13.434;2023-12-22T00:24:47;97924.81;;;3.01;92.36
80509;BME280;69838;52.602;13.434;2023-12-22T00:25:33;97924.06;;;3.13;90.63
80509;BME280;69838;52.602;13.434;2023-12-22T00:26:18;97918.91;;;3.10;91.22
80509;BME280;69838;52.602;13.434;2023-12-22T00:27:06;97931.56;;;3.06;91.55
80509;BME280;69838;52.602;13.434;2023-12-22T00:27:51;97935.13;;;3.07;90.82
80509;BME280;69838;52.602;13.434;2023-12-22T00:28:37;97943.97;;;3.08;90.92
80509;BME280;69838;52.602;13.434;2023-12-22T00:29:23;97931.66;;;3.05;90.69
80509;BME280;69838;52.602;13.434;2023-12-22T00:30:10;97934.91;;;3.10;90.22
80509;BME280;69838;52.602;13.434;2023-12-22T00:30:56;97898.66;;;3.08;90.45
80509;BME280;69838;52.602;13.434;2023-12-22T00:31:42;97939.09;;;3.14;88.45
80509;BME280;69838;52.602;13.434;2023-12-22T00:32:28;97950.72;;;3.13;89.00
80509;BME280;69838;52.602;13.434;2023-12-22T00:33:13;97938.13;;;3.15;89.33
80509;BME280;69838;52.602;13.434;2023-12-22T00:34:00;97954.53;;;3.09;90.40
80509;BME280;69838;52.602;13.434;2023-12-22T00:34:46;97961.78;;;3.07;90.59
80509;BME280;69838;52.602;13.434;2023-12-22T00:35:31;97956.81;;;3.01;91.23
80509;BME280;69838;52.602;13.434;2023-12-22T00:36:20;97953.56;;;3.10;89.14
80509;BME280;69838;52.602;13.434;2023-12-22T00:37:09;97959.28;;;3.18;88.43
80509;BME280;69838;52.602;13.434;2023-12-22T00:37:54;97963.63;;;3.19;88.35
80509;BME280;69838;52.602;13.434;2023-12-22T00:38:41;97970.97;;;3.16;89.40
80509;BME280;69838;52.602;13.434;2023-12-22T00:39:27;97965.84;;;3.13;89.90
80509;BME280;69838;52.602;13.434;2023-12-22T00:40:12;97963.09;;;3.14;88.78
80509;BME280;69838;52.602;13.434;2023-12-22T00:40:59;97970.22;;;3.14;89.49
80509;BME280;69838;52.602;13.434;2023-12-22T00:41:44;97969.19;;;3.16;89.66
80509;BME280;69838;52.602;13.434;2023-12-22T00:42:31;97981.75;;;3.14;90.16
80509;BME280;69838;52.602;13.434;2023-12-22T00:43:16;97968.88;;;3.21;88.56
80509;BME280;69838;52.602;13.434;2023-12-22T00:44:03;97946.53;;;3.23;87.96
80509;BME280;69838;52.602;13.434;2023-12-22T00:44:49;97961.84;;;3.20;87.19
80509;BME280;69838;52.602;13.434;2023-12-22T00:45:34;97968.50;;;3.27;87.55
80509;BME280;69838;52.602;13.434;2023-12-22T00:46:20;97981.84;;;3.27;87.47
80509;BME280;69838;52.602;13.434;2023-12-22T00:47:06;97981.94;;;3.25;87.84
80509;BME280;69838;52.602;13.434;2023-12-22T00:47:51;97960.03;;;3.06;88.17
80509;BME280;69838;52.602;13.434;2023-12-22T00:48:38;97994.69;;;3.20;88.74
80509;BME280;69838;52.602;13.434;2023-12-22T00:49:23;97990.44;;;3.18;89.23
80509;BME280;69838;52.602;13.434;2023-12-22T00:50:09;97978.31;;;3.12;89.22
80509;BME280;69838;52.602;13.434;2023-12-22T00:50:55;97999.38;;;3.17;89.54
80509;BME280;69838;52.602;13.434;2023-12-22T00:51:41;97983.56;;;3.14;90.40
80509;BME280;69838;52.602;13.434;2023-12-22T00:52:26;97996.97;;;3.12;90.39
80509;BME280;69838;52.602;13.434;2023-12-22T00:53:12;97948.63;;;3.18;89.35
80509;BME280;69838;52.602;13.434;2023-12-22T00:53:58;97997.28;;;3.22;89.25
80509;BME280;69838;52.602;13.434;2023-12-22T00:54:43;97995.44;;;3.22;89.51
80509;BME280;69838;52.602;13.434;2023-12-22T00:55:30;97999.44;;;3.30;88.33
80509;BME280;69838;52.602;13.434;2023-12-22T00:56:15;98000.41;;;3.29;88.44
80509;BME280;69838;52.602;13.434;2023-12-22T00:57:02;97985.34;;;3.28;88.95
80509;BME280;69838;52.602;13.434;2023-12-22T00:57:49;98003.94;;;3.29;88.89
80509;BME280;69838;52.602;13.434;2023-12-22T00:58:34;97991.63;;;3.27;89.98
80509;BME280;69838;52.602;13.434;2023-12-22T00:59:21;97990.88;;;3.24;89.98
80509;BME280;69838;52.602;13.434;2023-12-22T01:00:07;97994.59;;;3.22;90.00
80509;BME280;69838;52.602;13.434;2023-12-22T01:00:56;98013.53;;;3.17;90.81
80509;BME280;69838;52.602;13.434;2023-12-22T01:01:42;97996.59;;;3.18;89.92
80509;BME280;69838;52.602;13.434;2023-12-22T01:02:28;98003.63;;;3.19;90.15
80509;BME280;69838;52.602;13.434;2023-12-22T01:03:14;97993.19;;;3.16;90.36
80509;BME280;69838;52.602;13.434;2023-12-22T01:04:00;98009.75;;;3.21;90.87
80509;BME280;69838;52.602;13.434;2023-12-22T01:04:46;98008.97;;;3.19;91.05
80509;BME280;69838;52.602;13.434;2023-12-22T01:05:31;98016.22;;;3.17;91.30
80509;BME280;69838;52.602;13.434;2023-12-22T01:06:17;98000.22;;;3.17;91.98
80509;BME280;69838;52.602;13.434;2023-12-22T01:07:03;98002.88;;;3.17;92.12
80509;BME280;69838;52.602;13.434;2023-12-22T01:07:49;98015.53;;;3.14;92.91
80509;BME280;69838;52.602;13.434;2023-12-22T01:08:36;98001.75;;;3.07;93.65
80509;BME280;69838;52.602;13.434;2023-12-22T01:09:22;98015.94;;;3.08;94.10
80509;BME280;69838;52.602;13.434;2023-12-22T01:10:08;98026.50;;;3.09;93.58
80509;BME280;69838;52.602;13.434;2023-12-22T01:10:55;98021.34;;;3.06;94.13
80509;BME280;69838;52.602;13.434;2023-12-22T01:11:41;98020.41;;;3.07;94.43
80509;BME280;69838;52.602;13.434;2023-12-22T01:12:26;98029.34;;;3.06;94.12
80509;BME280;69838;52.602;13.434;2023-12-22T01:13:14;98024.00;;;3.06;95.00
80509;BME280;69838;52.602;13.434;2023-12-22T01:13:59;98026.09;;;3.01;95.16
80509;BME280;69838;52.602;13.434;2023-12-22T01:14:45;98022.97;;;3.09;94.47
80509;BME280;69838;52.602;13.434;2023-12-22T01:15:31;98029.34;;;3.06;94.81
80509;BME280;69838;52.602;13.434;2023-12-22T01:16:17;98032.09;;;3.04;94.71
80509;BME280;69838;52.602;13.434;2023-12-22T01:17:04;98040.00;;;3.06;94.93
80509;BME280;69838;52.602;13.434;2023-12-22T01:17:51;98037.25;;;3.08;94.58
80509;BME280;69838;52.602;13.434;2023-12-22T01:18:36;98035.53;;;3.06;94.99
80509;BME280;69838;52.602;13.434;2023-12-22T01:19:22;98043.63;;;3.05;95.30
80509;BME280;69838;52.602;13.434;2023-12-22T01:20:10;98029.53;;;3.03;95.15
80509;BME280;69838;52.602;13.434;2023-12-22T01:20:55;98047.06;;;3.07;95.33
80509;BME280;69838;52.602;13.434;2023-12-22T01:21:41;98047.06;;;3.07;95.60
80509;BME280;69838;52.602;13.434;2023-12-22T01:22:27;98055.25;;;3.04;96.54
80509;BME280;69838;52.602;13.434;2023-12-22T01:23:13;98050.84;;;3.03;96.46
80509;BME280;69838;52.602;13.434;2023-12-22T01:23:58;98054.28;;;3.05;96.56
80509;BME280;69838;52.602;13.434;2023-12-22T01:24:45;98055.06;;;3.07;96.45
80509;BME280;69838;52.602;13.434;2023-12-22T01:25:30;98069.25;;;3.08;96.33
80509;BME280;69838;52.602;13.434;2023-12-22T01:26:16;98000.97;;;3.05;96.41
80509;BME280;69838;52.602;13.434;2023-12-22T01:27:02;98066.50;;;3.09;96.56
80509;BME280;69838;52.602;13.434;2023-12-22T01:27:48;98041.75;;;3.07;97.01
80509;BME280;69838;52.602;13.434;2023-12-22T01:28:37;98048.94;;;3.05;97.06
80509;BME280;69838;52.602;13.434;2023-12-22T01:29:23;98061.34;;;3.06;97.40
80509;BME280;69838;52.602;13.434;2023-12-22T01:30:08;98056.69;;;3.10;96.96
80509;BME280;69838;52.602;13.434;2023-12-22T01:30:54;98059.34;;;3.10;97.23
80509;BME280;69838;52.602;13.434;2023-12-22T01:31:40;98069.41;;;3.04;97.93
80509;BME280;69838;52.602;13.434;2023-12-22T01:32:26;98053.59;;;3.01;98.63
80509;BME280;69838;52.602;13.434;2023-12-22T01:33:11;98053.59;;;3.01;98.77
80509;BME280;69838;52.602;13.434;2023-12-22T01:33:58;98064.25;;;3.01;99.03
80509;BME280;69838;52.602;13.434;2023-12-22T01:34:43;98075.81;;;3.02;99.10
80509;BME280;69838;52.602;13.434;2023-12-22T01:35:28;98069.81;;;2.98;99.24
80509;BME280;69838;52.602;13.434;2023-12-22T01:36:15;98070.66;;;2.99;99.51
80509;BME280;69838;52.602;13.434;2023-12-22T01:37:00;98055.34;;;3.02;98.77
80509;BME280;69838;52.602;13.434;2023-12-22T01:37:45;98069.41;;;3.04;98.16
80509;BME280;69838;52.602;13.434;2023-12-22T01:38:33;98068.75;;;3.01;99.61
80509;BME280;69838;52.602;13.434;2023-12-22T01:39:19;98068.91;;;2.98;99.53
80509;BME280;69838;52.602;13.434;2023-12-22T01:40:06;98065.72;;;2.93;100.00
80509;BME280;69838;52.602;13.434;2023-12-22T01:40:52;98070.91;;;2.94;99.64
80509;BME280;69838;52.602;13.434;2023-12-22T01:41:38;98077.97;;;2.95;99.71
80509;BME280;69838;52.602;13.434;2023-12-22T01:42:23;98078.34;;;2.89;99.95
80509;BME280;69838;52.602;13.434;2023-12-22T01:43:10;98080.72;;;2.94;100.00
80509;BME280;69838;52.602;13.434;2023-12-22T01:43:56;98065.88;;;2.90;100.00
80509;BME280;69838;52.602;13.434;2023-12-22T01:44:42;98081.09;;;2.88;100.00
80509;BME280;69838;52.602;13.434;2023-12-22T01:45:28;98080.13;;;2.89;100.00
80509;BME280;69838;52.602;13.434;2023-12-22T01:46:14;98082.03;;;2.86;100.00
80509;BME280;69838;52.602;13.434;2023-12-22T01:46:59;98091.00;;;2.85;100.00
80509;BME280;69838;52.602;13.434;2023-12-22T01:47:46;98082.22;;;2.83;100.00
80509;BME280;69838;52.602;13.434;2023-12-22T01:48:32;98089.44;;;2.81;100.00
80509;BME280;69838;52.602;13.434;2023-12-22T01:49:17;98080.88;;;2.76;100.00
80509;BME280;69838;52.602;13.434;2023-12-22T01:50:04;98067.00;;;2.71;100.00
80509;BME280;69838;52.602;13.434;2023-12-22T01:50:50;98084.66;;;2.72;100.00
80509;BME280;69838;52.602;13.434;2023-12-22T01:51:39;98079.09;;;2.77;100.00
80509;BME280;69838;52.602;13.434;2023-12-22T01:52:26;98088.84;;;2.76;100.00
80509;BME280;69838;52.602;13.434;2023-12-22T01:53:12;98094.97;;;2.78;100.00
80509;BME280;69838;52.602;13.434;2023-12-22T01:53:57;98094.00;;;2.79;100.00
80509;BME280;69838;52.602;13.434;2023-12-22T01:54:44;98091.34;;;2.79;100.00
80509;BME280;69838;52.602;13.434;2023-12-22T01:55:29;98091.53;;;2.76;100.00
80509;BME280;69838;52.602;13.434;2023-12-22T01:56:15;98098.56;;;2.77;100.00
80509;BME280;69838;52.602;13.434;2023-12-22T01:57:02;98094.78;;;2.81;100.00
80509;BME280;69838;52.602;13.434;2023-12-22T01:57:47;98108.31;;;2.78;100.00
80509;BME280;69838;52.602;13.434;2023-12-22T01:58:34;98088.50;;;2.82;100.00
80509;BME280;69838;52.602;13.434;2023-12-22T01:59:23;98104.66;;;2.79;100.00
80509;BME280;69838;52.602;13.434;2023-12-22T02:00:10;98104.00;;;2.76;100.00
80509;BME280;69838;52.602;13.434;2023-12-22T02:00:56;98092.50;;;2.75;100.00
80509;BME280;69838;52.602;13.434;2023-12-22T02:01:43;98087.06;;;2.77;100.00
80509;BME280;69838;52.602;13.434;2023-12-22T02:02:31;98049.41;;;2.53;100.00
80509;BME280;69838;52.602;13.434;2023-12-22T02:03:16;98078.75;;;2.67;100.00
80509;BME280;69838;52.602;13.434;2023-12-22T02:04:03;98084.06;;;2.67;100.00
80509;BME280;69838;52.602;13.434;2023-12-22T02:04:50;98082.28;;;2.67;100.00
80509;BME280;69838;52.602;13.434;2023-12-22T02:05:36;98073.50;;;2.65;100.00
80509;BME280;69838;52.602;13.434;2023-12-22T02:06:21;98104.44;;;2.68;100.00
80509;BME280;69838;52.602;13.434;2023-12-22T02:07:07;98093.03;;;2.66;100.00
80509;BME280;69838;52.602;13.434;2023-12-22T02:07:55;98085.81;;;2.68;100.00
80509;BME280;69838;52.602;13.434;2023-12-22T02:08:41;98103.69;;;2.66;100.00
80509;BME280;69838;52.602;13.434;2023-12-22T02:09:29;98085.88;;;2.66;100.00
80509;BME280;69838;52.602;13.434;2023-12-22T02:10:15;98093.13;;;2.64;100.00
80509;BME280;69838;52.602;13.434;2023-12-22T02:11:01;98094.81;;;2.65;100.00
80509;BME280;69838;52.602;13.434;2023-12-22T02:11:47;98091.59;;;2.60;100.00
80509;BME280;69838;52.602;13.434;2023-12-22T02:12:33;98089.94;;;2.58;100.00
80509;BME280;69838;52.602;13.434;2023-12-22T02:13:18;98098.09;;;2.55;100.00
80509;BME280;69838;52.602;13.434;2023-12-22T02:14:05;98091.25;;;2.51;100.00
80509;BME280;69838;52.602;13.434;2023-12-22T02:14:52;98091.25;;;2.51;100.00
80509;BME280;69838;52.602;13.434;2023-12-22T02:15:38;98096.88;;;2.46;100.00
80509;BME280;69838;52.602;13.434;2023-12-22T02:16:29;98089.88;;;2.43;100.00
80509;BME280;69838;52.602;13.434;2023-12-22T02:17:20;98094.09;;;2.47;100.00
80509;BME280;69838;52.602;13.434;2023-12-22T02:18:10;98081.31;;;2.38;100.00
80509;BME280;69838;52.602;13.434;2023-12-22T02:18:59;98070.31;;;2.44;100.00
80509;BME280;69838;52.602;13.434;2023-12-22T02:19:50;98087.81;;;2.48;100.00
80509;BME280;69838;52.602;13.434;2023-12-22T02:20:36;98091.41;;;2.47;100.00
80509;BME280;69838;52.602;13.434;2023-12-22T02:21:22;98095.66;;;2.52;100.00
80509;BME280;69838;52.602;13.434;2023-12-22T02:22:09;98098.38;;;2.50;100.00
80509;BME280;69838;52.602;13.434;2023-12-22T02:22:56;98102.06;;;2.47;100.00
80509;BME280;69838;52.602;13.434;2023-12-22T02:23:43;98096.06;;;2.44;100.00
80509;BME280;69838;52.602;13.434;2023-12-22T02:24:29;98097.28;;;2.38;100.00
80509;BME280;69838;52.602;13.434;2023-12-22T02:25:16;98075.03;;;2.39;100.00
80509;BME280;69838;52.602;13.434;2023-12-22T02:26:10;98083.03;;;2.39;100.00
80509;BME280;69838;52.602;13.434;2023-12-22T02:27:03;98094.63;;;2.38;100.00
80509;BME280;69838;52.602;13.434;2023-12-22T02:27:50;98084.50;;;2.29;100.00
80509;BME280;69838;52.602;13.434;2023-12-22T02:28:39;98081.31;;;2.38;100.00
80509;BME280;69838;52.602;13.434;2023-12-22T02:29:25;98093.31;;;2.45;100.00
80509;BME280;69838;52.602;13.434;2023-12-22T02:30:14;98070.06;;;2.33;100.00
80509;BME280;69838;52.602;13.434;2023-12-22T02:31:11;98081.66;;;2.32;100.00
80509;BME280;69838;52.602;13.434;2023-12-22T02:32:02;98087.59;;;2.37;100.00
80509;BME280;69838;52.602;13.434;2023-12-22T02:32:51;98091.97;;;2.38;100.00
80509;BME280;69838;52.602;13.434;2023-12-22T02:33:41;98107.25;;;2.35;100.00
80509;BME280;69838;52.602;13.434;2023-12-22T02:34:27;98090.25;;;2.37;100.00
80509;BME280;69838;52.602;13.434;2023-12-22T02:35:16;98100.72;;;2.40;100.00
80509;BME280;69838;52.602;13.434;2023-12-22T02:36:04;98103.97;;;2.45;100.00
80509;BME280;69838;52.602;13.434;2023-12-22T02:36:53;98105.88;;;2.43;100.00
80509;BME280;69838;52.602;13.434;2023-12-22T02:37:40;98094.53;;;2.40;100.00
80509;BME280;69838;52.602;13.434;2023-12-22T02:38:28;98101.59;;;2.41;100.00
80509;BME280;69838;52.602;13.434;2023-12-22T02:39:16;98098.84;;;2.42;100.00
80509;BME280;69838;52.602;13.434;2023-12-22T02:40:03;98090.06;;;2.40;100.00
80509;BME280;69838;52.602;13.434;2023-12-22T02:40:50;98091.97;;;2.38;100.00
80509;BME280;69838;52.602;13.434;2023-12-22T02:41:35;98104.25;;;2.41;100.00
80509;BME280;69838;52.602;13.434;2023-12-22T02:42:21;98099.78;;;2.41;100.00
80509;BME280;69838;52.602;13.434;2023-12-22T02:43:11;98085.25;;;2.31;100.00
80509;BME280;69838;52.602;13.434;2023-12-22T02:43:58;98104.66;;;2.33;100.00
80509;BME280;69838;52.602;13.434;2023-12-22T02:44:44;98101.06;;;2.34;100.00
80509;BME280;69838;52.602;13.434;2023-12-22T02:45:29;98096.78;;;2.32;100.00
80509;BME280;69838;52.602;13.434;2023-12-22T02:46:17;98101.00;;;2.36;100.00
80509;BME280;69838;52.602;13.434;2023-12-22T02:47:02;98095.59;;;2.37;100.00
80509;BME280;69838;52.602;13.434;2023-12-22T02:47:48;98078.19;;;2.16;100.00
80509;BME280;69838;52.602;13.434;2023-12-22T02:48:34;98081.31;;;2.38;100.00
80509;BME280;69838;52.602;13.434;2023-12-22T02:49:20;98083.19;;;2.36;100.00
80509;BME280;69838;52.602;13.434;2023-12-22T02:50:06;98086.47;;;2.41;100.00
80509;BME280;69838;52.602;13.434;2023-12-22T02:50:53;98085.09;;;2.34;100.00
80509;BME280;69838;52.602;13.434;2023-12-22T02:51:38;98080.31;;;2.25;100.00
80509;BME280;69838;52.602;13.434;2023-12-22T02:52:24;98094.97;;;2.32;100.00
80509;BME280;69838;52.602;13.434;2023-12-22T02:53:10;98083.97;;;2.22;100.00
80509;BME280;69838;52.602;13.434;2023-12-22T02:53:57;98094.38;;;2.27;100.00
80509;BME280;69838;52.602;13.434;2023-12-22T02:54:42;98088.13;;;2.28;100.00
80509;BME280;69838;52.602;13.434;2023-12-22T02:55:29;98101.06;;;2.34;100.00
80509;BME280;69838;52.602;13.434;2023-12-22T02:56:14;98101.06;;;2.34;100.00
80509;BME280;69838;52.602;13.434;2023-12-22T02:57:00;98077.28;;;2.31;100.00
80509;BME280;69838;52.602;13.434;2023-12-22T02:57:46;98078.03;;;2.33;100.00
80509;BME280;69838;52.602;13.434;2023-12-22T02:58:31;98083.81;;;2.25;100.00
80509;BME280;69838;52.602;13.434;2023-12-22T02:59:17;98096.44;;;2.22;100.00
80509;BME280;69838;52.602;13.434;2023-12-22T03:00:04;98082.63;;;2.15;100.00
80509;BME280;69838;52.602;13.434;2023-12-22T03:00:50;98068.22;;;2.19;100.00
80509;BME280;69838;52.602;13.434;2023-12-22T03:01:35;98080.13;;;2.28;100.00
80509;BME280;69838;52.602;13.434;2023-12-22T03:02:22;98087.00;;;2.32;100.00
80509;BME280;69838;52.602;13.434;2023-12-22T03:03:07;98090.59;;;2.31;100.00
80509;BME280;69838;52.602;13.434;2023-12-22T03:03:52;98074.44;;;2.34;100.00
80509;BME280;69838;52.602;13.434;2023-12-22T03:04:39;98071.94;;;2.31;100.00
80509;BME280;69838;52.602;13.434;2023-12-22T03:05:25;98080.13;;;2.28;100.00
80509;BME280;69838;52.602;13.434;2023-12-22T03:06:10;98085.72;;;2.23;100.00
80509;BME280;69838;52.602;13.434;2023-12-22T03:06:57;98085.88;;;2.20;100.00
80509;BME280;69838;52.602;13.434;2023-12-22T03:07:42;98079.78;;;2.18;100.00
80509;BME280;69838;52.602;13.434;2023-12-22T03:08:27;98075.50;;;2.16;100.00
80509;BME280;69838;52.602;13.434;2023-12-22T03:09:15;98080.31;;;2.09;100.00
80509;BME280;69838;52.602;13.434;2023-12-22T03:10:00;98085.81;;;2.06;100.00
80509;BME280;69838;52.602;13.434;2023-12-22T03:10:46;98083.91;;;2.08;100.00
80509;BME280;69838;52.602;13.434;2023-12-22T03:11:33;98090.00;;;2.26;100.00
80509;BME280;69838;52.602;13.434;2023-12-22T03:12:18;98084.78;;;2.24;100.00
80509;BME280;69838;52.602;13.434;2023-12-22T03:13:03;98084.94;;;2.21;100.00
80509;BME280;69838;52.602;13.434;2023-12-22T03:13:50;98089.44;;;2.21;100.00
80509;BME280;69838;52.602;13.434;2023-12-22T03:14:36;98087.78;;;2.18;100.00
80509;BME280;69838;52.602;13.434;2023-12-22T03:15:21;98094.16;;;2.16;100.00
80509;BME280;69838;52.602;13.434;2023-12-22T03:16:08;98084.59;;;2.12;100.00
80509;BME280;69838;52.602;13.434;2023-12-22T03:16:53;98087.84;;;2.17;100.00
80509;BME280;69838;52.602;13.434;2023-12-22T03:17:39;98083.66;;;2.13;100.00
80509;BME280;69838;52.602;13.434;2023-12-22T03:18:24;98080.63;;;2.19;100.00
80509;BME280;69838;52.602;13.434;2023-12-22T03:19:10;98092.25;;;2.18;100.00
80509;BME280;69838;52.602;13.434;2023-12-22T03:19:56;98095.94;;;2.15;100.00
80509;BME280;69838;52.602;13.434;2023-12-22T03:20:41;98087.44;;;2.08;100.00
80509;BME280;69838;52.602;13.434;2023-12-22T03:21:28;98093.19;;;2.01;100.00
80509;BME280;69838;52.602;13.434;2023-12-22T03:22:13;98083.16;;;2.06;100.00
80509;BME280;69838;52.602;13.434;2023-12-22T03:22:58;98075.34;;;2.03;100.00
80509;BME280;69838;52.602;13.434;2023-12-22T03:23:45;98082.38;;;2.04;100.00
80509;BME280;69838;52.602;13.434;2023-12-22T03:24:32;98081.69;;;2.00;100.00
80509;BME280;69838;52.602;13.434;2023-12-22T03:25:17;98089.84;;;1.97;100.00
80509;BME280;69838;52.602;13.434;2023-12-22T03:26:04;98090.97;;;1.93;100.00
80509;BME280;69838;52.602;13.434;2023-12-22T03:26:50;98075.28;;;1.88;100.00
80509;BME280;69838;52.602;13.434;2023-12-22T03:27:36;98090.44;;;2.02;100.00
80509;BME280;69838;52.602;13.434;2023-12-22T03:28:22;98088.53;;;2.04;100.00
80509;BME280;69838;52.602;13.434;2023-12-22T03:29:07;98093.53;;;2.10;100.00
80509;BME280;69838;52.602;13.434;2023-12-22T03:29:54;98096.66;;;2.03;100.00
80509;BME280;69838;52.602;13.434;2023-12-22T03:30:39;98088.47;;;2.06;100.00
80509;BME280;69838;52.602;13.434;2023-12-22T03:31:25;98088.53;;;2.04;100.00
80509;BME280;69838;52.602;13.434;2023-12-22T03:32:11;98081.69;;;2.00;100.00
80509;BME280;69838;52.602;13.434;2023-12-22T03:32:57;98079.78;;;2.02;100.00
80509;BME280;69838;52.602;13.434;2023-12-22T03:33:42;98084.44;;;1.99;100.00
80509;BME280;69838;52.602;13.434;2023-12-22T03:34:28;98087.19;;;1.97;100.00
80509;BME280;69838;52.602;13.434;2023-12-22T03:35:14;98085.56;;;1.95;100.00
80509;BME280;69838;52.602;13.434;2023-12-22T03:36:00;98068.22;;;2.03;100.00
80509;BME280;69838;52.602;13.434;2023-12-22T03:36:45;98069.16;;;2.02;100.00
80509;BME280;69838;52.602;13.434;2023-12-22T03:37:33;98078.09;;;2.01;100.00
80509;BME280;69838;52.602;13.434;2023-12-22T03:38:19;98074.66;;;1.99;100.00
80509;BME280;69838;52.602;13.434;2023-12-22T03:39:05;98072.94;;;1.98;100.00
80509;BME280;69838;52.602;13.434;2023-12-22T03:39:53;98061.38;;;1.99;100.00
80509;BME280;69838;52.602;13.434;2023-12-22T03:40:38;98069.34;;;1.99;100.00
80509;BME280;69838;52.602;13.434;2023-12-22T03:41:24;98058.19;;;2.08;100.00
80509;BME280;69838;52.602;13.434;2023-12-22T03:42:10;98073.38;;;2.06;100.00
80509;BME280;69838;52.602;13.434;2023-12-22T03:42:56;98076.97;;;2.05;100.00
80509;BME280;69838;52.602;13.434;2023-12-22T03:43:41;98082.47;;;2.02;100.00
80509;BME280;69838;52.602;13.434;2023-12-22T03:44:28;98083.22;;;2.04;100.00
80509;BME280;69838;52.602;13.434;2023-12-22T03:45:13;98078.09;;;2.01;100.00
80509;BME280;69838;52.602;13.434;2023-12-22T03:45:59;98075.16;;;2.06;100.00
80509;BME280;69838;52.602;13.434;2023-12-22T03:46:45;98090.28;;;2.05;100.00
80509;BME280;69838;52.602;13.434;2023-12-22T03:47:31;98084.03;;;2.06;100.00
80509;BME280;69838;52.602;13.434;2023-12-22T03:48:16;98083.22;;;2.04;100.00
80509;BME280;69838;52.602;13.434;2023-12-22T03:49:02;98049.84;;;1.99;100.00
80509;BME280;69838;52.602;13.434;2023-12-22T03:49:48;98076.88;;;2.07;100.00
80509;BME280;69838;52.602;13.434;2023-12-22T03:50:33;98073.47;;;2.05;100.00
80509;BME280;69838;52.602;13.434;2023-12-22T03:51:19;98073.47;;;2.05;100.00
80509;BME280;69838;52.602;13.434;2023-12-22T03:52:05;98090.78;;;2.12;100.00
80509;BME280;69838;52.602;13.434;2023-12-22T03:52:50;98085.81;;;2.06;100.00
80509;BME280;69838;52.602;13.434;2023-12-22T03:53:36;98075.34;;;2.03;100.00
80509;BME280;69838;52.602;13.434;2023-12-22T03:54:22;98086.84;;;2.03;100.00
80509;BME280;69838;52.602;13.434;2023-12-22T03:55:09;98095.97;;;1.99;100.00
80509;BME280;69838;52.602;13.434;2023-12-22T03:55:54;98087.19;;;1.97;100.00
80509;BME280;69838;52.602;13.434;2023-12-22T03:56:41;98100.31;;;2.00;100.00
80509;BME280;69838;52.602;13.434;2023-12-22T03:57:26;98082.97;;;1.93;100.00
80509;BME280;69838;52.602;13.434;2023-12-22T03:58:13;98083.75;;;1.95;100.00
80509;BME280;69838;52.602;13.434;2023-12-22T03:58:59;98085.31;;;1.99;100.00
80509;BME280;69838;52.602;13.434;2023-12-22T03:59:44;98091.56;;;1.98;100.00
80509;BME280;69838;52.602;13.434;2023-12-22T04:00:30;98085.72;;;2.07;100.00
80509;BME280;69838;52.602;13.434;2023-12-22T04:01:16;98109.75;;;2.06;100.00
80509;BME280;69838;52.602;13.434;2023-12-22T04:02:01;98086.84;;;2.03;100.00
80509;BME280;69838;52.602;13.434;2023-12-22T04:02:48;98106.25;;;2.05;100.00
80509;BME280;69838;52.602;13.434;2023-12-22T04:03:33;98090.88;;;2.10;100.00